Time;durP1;ratioP1;P1;durP2;ratioP2;P2;SDS_P1;SDS_P2;PMS_P1;PMS_P2;Temp;Humidity;BMP_temperature;BMP_pressure;BME280_temperature;BME280_humidity;BME280_pressure;Samples;Min_cycle;Max_cycle;Signal;HPM_P1;HPM_P2
2023/09/19 00:01:45;;;;;;;2.72;1.30;;;19.80;56.60;;;;;;4961969;28;20442;-56
2023/09/19 00:04:14;;;;;;;3.10;1.25;;;19.80;56.70;;;;;;4960990;28;20354;-56
2023/09/19 00:06:42;;;;;;;1.55;0.95;;;19.70;56.60;;;;;;4960624;28;20054;-55
2023/09/19 00:09:10;;;;;;;2.80;1.40;;;19.70;56.60;;;;;;4960753;28;20649;-56
2023/09/19 00:11:38;;;;;;;3.10;1.13;;;19.70;56.50;;;;;;4959072;28;20054;-59
2023/09/19 00:14:08;;;;;;;3.15;1.23;;;19.70;56.30;;;;;;4961610;28;20050;-59
2023/09/19 00:16:35;;;;;;;2.38;1.30;;;19.60;56.20;;;;;;4963832;28;20055;-57
2023/09/19 00:19:08;;;;;;;4.10;1.25;;;19.60;56.20;;;;;;4961570;28;20058;-55
2023/09/19 00:21:37;;;;;;;6.22;1.20;;;19.60;56.40;;;;;;4956671;28;20050;-55
2023/09/19 00:24:06;;;;;;;3.13;1.00;;;19.60;56.40;;;;;;4960030;28;20050;-56
2023/09/19 00:26:34;;;;;;;1.75;1.15;;;19.50;56.30;;;;;;4960927;28;20051;-56
2023/09/19 00:29:05;;;;;;;2.10;0.93;;;19.50;56.30;;;;;;4960309;28;20055;-58
2023/09/19 00:31:33;;;;;;;6.05;1.15;;;19.50;56.40;;;;;;4959335;28;20050;-60
2023/09/19 00:34:04;;;;;;;2.20;1.02;;;19.40;56.30;;;;;;4962293;28;20054;-58
2023/09/19 00:36:31;;;;;;;8.80;1.55;;;19.40;56.40;;;;;;4956412;28;20047;-54
2023/09/19 00:39:00;;;;;;;5.55;1.63;;;19.40;56.40;;;;;;4962398;28;20061;-56
2023/09/19 00:41:30;;;;;;;2.33;1.00;;;19.40;56.40;;;;;;4961563;28;20109;-57
2023/09/19 00:43:57;;;;;;;3.20;1.20;;;19.40;56.10;;;;;;4962382;28;20415;-57
2023/09/19 00:46:25;;;;;;;3.13;1.05;;;19.30;55.80;;;;;;4958073;28;20046;-60
2023/09/19 00:48:52;;;;;;;3.63;1.40;;;19.30;55.90;;;;;;4962356;28;20403;-57
2023/09/19 00:51:22;;;;;;;3.53;1.13;;;19.30;56.10;;;;;;4955590;28;20503;-57
2023/09/19 00:53:49;;;;;;;3.85;1.25;;;19.30;56.30;;;;;;4960741;28;20061;-56
2023/09/19 00:56:18;;;;;;;2.78;1.10;;;19.30;56.20;;;;;;4958549;28;20507;-59
2023/09/19 00:58:46;;;;;;;3.38;1.00;;;19.20;56.20;;;;;;4960175;28;20063;-54
2023/09/19 01:01:14;;;;;;;1.88;0.90;;;19.20;56.30;;;;;;4960942;28;20055;-58
2023/09/19 01:03:42;;;;;;;3.60;1.40;;;19.30;56.50;;;;;;4960525;28;20067;-56
2023/09/19 01:06:09;;;;;;;6.30;1.85;;;19.20;56.50;;;;;;4959602;28;20484;-57
2023/09/19 01:08:36;;;;;;;2.75;1.15;;;19.20;56.50;;;;;;4958803;28;20058;-56
2023/09/19 01:11:11;;;;;;;7.30;1.27;;;19.20;56.40;;;;;;4958278;28;20058;-56
2023/09/19 01:13:49;;;;;;;3.08;1.27;;;19.20;56.40;;;;;;4962066;28;20506;-57
2023/09/19 01:16:27;;;;;;;4.20;1.20;;;19.20;56.40;;;;;;4961867;28;20062;-56
2023/09/19 01:19:03;;;;;;;2.60;1.00;;;19.20;56.40;;;;;;4962144;28;20055;-55
2023/09/19 01:21:42;;;;;;;1.65;1.17;;;19.20;56.40;;;;;;4955498;28;20058;-54
2023/09/19 01:24:35;;;;;;;5.40;1.45;;;19.20;56.50;;;;;;4961358;28;20487;-56
2023/09/19 01:27:28;;;;;;;4.38;1.23;;;19.20;56.40;;;;;;4958734;28;20065;-52
2023/09/19 01:30:11;;;;;;;4.18;1.38;;;19.20;56.50;;;;;;4961087;28;20580;-53
2023/09/19 01:32:41;;;;;;;4.43;1.55;;;19.20;56.50;;;;;;4960795;28;20384;-54
2023/09/19 01:35:12;;;;;;;8.60;1.60;;;19.20;56.40;;;;;;4957094;28;20066;-53
2023/09/19 01:37:42;;;;;;;4.75;1.55;;;19.20;56.50;;;;;;4958674;28;20050;-50
2023/09/19 01:40:16;;;;;;;3.45;0.98;;;19.20;56.30;;;;;;4960063;28;20059;-53
2023/09/19 01:42:49;;;;;;;6.07;1.48;;;19.20;56.40;;;;;;4959638;28;21806;-55
2023/09/19 01:45:27;;;;;;;8.67;1.57;;;19.20;56.30;;;;;;4957897;28;20058;-51
2023/09/19 01:47:57;;;;;;;8.20;1.40;;;19.20;56.20;;;;;;4959940;28;20093;-54
2023/09/19 01:50:32;;;;;;;4.07;1.33;;;19.20;56.20;;;;;;4960308;28;20050;-54
2023/09/19 01:53:04;;;;;;;2.60;1.00;;;19.20;56.10;;;;;;4959711;28;20058;-53
2023/09/19 01:55:37;;;;;;;4.78;1.23;;;19.30;56.00;;;;;;4957202;28;20065;-53
2023/09/19 01:58:09;;;;;;;5.10;1.33;;;19.30;56.00;;;;;;4961997;28;20066;-55
2023/09/19 02:00:42;;;;;;;4.70;1.27;;;19.30;55.90;;;;;;4961514;28;20403;-49
2023/09/19 02:03:10;;;;;;;5.45;1.60;;;19.30;55.90;;;;;;4959648;28;20063;-53
2023/09/19 02:05:39;;;;;;;4.38;1.30;;;19.30;55.90;;;;;;4958117;28;20055;-53
2023/09/19 02:08:06;;;;;;;6.35;1.63;;;19.30;55.80;;;;;;4960765;28;20392;-48
2023/09/19 02:10:34;;;;;;;4.47;1.30;;;19.30;55.70;;;;;;4959892;28;20050;-49
2023/09/19 02:13:04;;;;;;;5.10;1.63;;;19.30;55.60;;;;;;4958500;28;20061;-53
2023/09/19 02:15:35;;;;;;;6.97;1.90;;;19.30;55.40;;;;;;4963917;28;20062;-51
2023/09/19 02:18:05;;;;;;;7.72;1.85;;;19.40;55.40;;;;;;4963851;28;20830;-55
2023/09/19 02:20:32;;;;;;;4.85;1.08;;;19.30;55.30;;;;;;4963889;28;20050;-55
2023/09/19 02:23:00;;;;;;;4.30;1.52;;;19.40;55.20;;;;;;4957589;28;20050;-52
2023/09/19 02:25:27;;;;;;;4.25;1.33;;;19.40;55.20;;;;;;4964124;28;20055;-57
2023/09/19 02:27:58;;;;;;;10.02;2.03;;;19.40;55.20;;;;;;4961504;28;20061;-50
2023/09/19 02:30:25;;;;;;;3.50;1.20;;;19.30;55.00;;;;;;4963323;28;20522;-53
2023/09/19 02:32:53;;;;;;;6.97;1.50;;;19.40;55.00;;;;;;4961619;28;20062;-56
2023/09/19 02:35:22;;;;;;;4.50;1.50;;;19.40;54.90;;;;;;4962214;28;20513;-54
2023/09/19 02:37:49;;;;;;;7.80;1.77;;;19.40;55.40;;;;;;4955427;28;20062;-55
2023/09/19 02:40:19;;;;;;;5.05;1.38;;;19.40;54.90;;;;;;4961483;28;20066;-56
2023/09/19 02:42:48;;;;;;;5.60;1.70;;;19.40;54.90;;;;;;4959946;28;21213;-54
2023/09/19 02:45:17;;;;;;;4.93;1.50;;;19.40;54.80;;;;;;4962407;28;20050;-57
2023/09/19 02:47:45;;;;;;;8.27;1.58;;;19.40;54.90;;;;;;4960968;28;20055;-56
2023/09/19 02:50:13;;;;;;;6.68;1.77;;;19.40;55.00;;;;;;4962755;28;20063;-56
2023/09/19 02:52:44;;;;;;;6.70;1.63;;;19.40;54.90;;;;;;4962329;28;20432;-56
2023/09/19 02:55:12;;;;;;;8.55;1.73;;;19.40;54.90;;;;;;4963868;28;20051;-56
2023/09/19 02:57:43;;;;;;;6.97;2.10;;;19.40;54.80;;;;;;4957317;28;20515;-58
2023/09/19 03:00:12;;;;;;;6.88;1.77;;;19.40;54.70;;;;;;4963157;28;20062;-59
2023/09/19 03:02:41;;;;;;;5.00;1.30;;;19.30;54.70;;;;;;4961899;28;20534;-54
2023/09/19 03:05:11;;;;;;;11.00;2.38;;;19.30;54.60;;;;;;4964509;28;20046;-55
2023/09/19 03:07:39;;;;;;;7.68;1.88;;;19.30;54.60;;;;;;4964495;28;20055;-62
2023/09/19 03:10:10;;;;;;;6.68;1.70;;;19.30;54.50;;;;;;4964791;28;20047;-62
2023/09/19 03:12:40;;;;;;;8.05;1.60;;;19.30;54.40;;;;;;4950990;28;20043;-62
2023/09/19 03:15:09;;;;;;;7.95;2.13;;;19.20;54.30;;;;;;4964552;28;20059;-63
2023/09/19 03:17:37;;;;;;;9.98;1.98;;;19.20;54.30;;;;;;4964981;28;20046;-63
2023/09/19 03:20:08;;;;;;;5.10;1.70;;;19.20;54.40;;;;;;4963989;28;20494;-62
2023/09/19 03:22:35;;;;;;;10.15;2.15;;;19.20;54.40;;;;;;4963263;28;20059;-62
2023/09/19 03:25:07;;;;;;;7.38;2.15;;;19.10;54.40;;;;;;4963986;28;20051;-61
2023/09/19 03:27:36;;;;;;;8.45;1.90;;;19.20;54.40;;;;;;4964906;28;20063;-63
2023/09/19 03:30:08;;;;;;;9.52;2.88;;;19.10;54.30;;;;;;4962860;28;20545;-63
2023/09/19 03:32:35;;;;;;;6.28;1.77;;;19.10;54.30;;;;;;4964951;28;20407;-62
2023/09/19 03:35:05;;;;;;;7.22;1.80;;;19.10;54.30;;;;;;4963784;28;20051;-59
2023/09/19 03:37:33;;;;;;;5.85;1.65;;;19.00;54.20;;;;;;4963074;28;20495;-63
2023/09/19 03:40:04;;;;;;;6.90;1.52;;;19.00;54.20;;;;;;4963777;28;20074;-63
2023/09/19 03:42:32;;;;;;;6.70;1.30;;;19.00;54.30;;;;;;4964765;28;20057;-62
2023/09/19 03:45:04;;;;;;;8.60;1.67;;;19.00;54.30;;;;;;4964353;28;20054;-62
2023/09/19 03:47:31;;;;;;;6.88;1.52;;;19.00;54.30;;;;;;4963959;28;20046;-60
2023/09/19 03:49:59;;;;;;;6.20;1.77;;;18.90;54.30;;;;;;4963698;28;20582;-62
2023/09/19 03:52:26;;;;;;;6.13;1.33;;;18.90;54.30;;;;;;4963798;28;21173;-61
2023/09/19 03:54:54;;;;;;;5.53;1.80;;;18.90;54.30;;;;;;4963969;28;20058;-64
2023/09/19 03:57:22;;;;;;;8.63;1.55;;;18.90;54.30;;;;;;4963524;28;20055;-60
2023/09/19 03:59:49;;;;;;;6.88;1.73;;;18.90;54.40;;;;;;4961793;28;20069;-65
2023/09/19 04:02:23;;;;;;;10.60;2.30;;;18.90;54.40;;;;;;4963746;28;20043;-61
2023/09/19 04:04:51;;;;;;;7.85;2.10;;;18.90;54.40;;;;;;4962557;28;20066;-62
2023/09/19 04:07:22;;;;;;;7.32;2.47;;;18.80;54.30;;;;;;4961322;28;20047;-62
2023/09/19 04:09:50;;;;;;;7.47;1.52;;;18.80;54.40;;;;;;4964377;28;20058;-65
2023/09/19 04:12:17;;;;;;;4.68;1.65;;;18.80;54.60;;;;;;4964169;28;20054;-61
2023/09/19 04:14:45;;;;;;;4.97;1.38;;;18.80;54.70;;;;;;4962993;28;20422;-63
2023/09/19 04:17:13;;;;;;;5.60;1.75;;;18.80;54.80;;;;;;4962948;28;20062;-63
2023/09/19 04:19:41;;;;;;;4.18;1.38;;;18.80;54.80;;;;;;4963342;28;20059;-63
2023/09/19 04:22:09;;;;;;;5.97;2.00;;;18.70;54.80;;;;;;4961950;28;20058;-63
2023/09/19 04:24:44;;;;;;;8.85;2.00;;;18.70;54.80;;;;;;4959586;28;20058;-63
2023/09/19 04:27:14;;;;;;;6.13;1.83;;;18.70;55.00;;;;;;4945567;28;20054;-64
2023/09/19 04:29:42;;;;;;;3.83;1.50;;;18.70;55.10;;;;;;4936972;28;20062;-64
2023/09/19 04:32:10;;;;;;;8.60;1.83;;;18.70;55.10;;;;;;4963905;28;20057;-64
2023/09/19 04:34:38;;;;;;;7.88;1.90;;;18.70;55.20;;;;;;4957327;28;20059;-64
2023/09/19 04:37:07;;;;;;;6.90;1.67;;;18.70;55.30;;;;;;4961802;28;20446;-63
2023/09/19 04:39:35;;;;;;;4.03;1.42;;;18.70;55.30;;;;;;4963228;28;20419;-64
2023/09/19 04:42:03;;;;;;;7.57;1.85;;;18.70;55.30;;;;;;4963419;28;20789;-64
2023/09/19 04:44:31;;;;;;;5.28;1.60;;;18.70;55.30;;;;;;4962425;28;20526;-63
2023/09/19 04:46:59;;;;;;;6.43;2.08;;;18.60;55.30;;;;;;4958592;28;20388;-64
2023/09/19 04:49:26;;;;;;;5.85;1.70;;;18.60;55.30;;;;;;4959690;28;20062;-64
2023/09/19 04:51:55;;;;;;;4.53;1.73;;;18.60;55.40;;;;;;4956529;28;20419;-64
2023/09/19 04:54:24;;;;;;;6.82;1.52;;;18.60;55.40;;;;;;4960057;28;20081;-64
2023/09/19 04:56:52;;;;;;;7.53;2.00;;;18.60;55.40;;;;;;4957791;28;20058;-63
2023/09/19 04:59:19;;;;;;;6.68;1.77;;;18.50;55.40;;;;;;4963166;28;20069;-64
2023/09/19 05:01:47;;;;;;;4.70;1.60;;;18.50;55.40;;;;;;4963606;28;20512;-64
2023/09/19 05:04:14;;;;;;;7.50;1.30;;;18.50;55.40;;;;;;4962028;28;20592;-62
2023/09/19 05:06:42;;;;;;;4.80;1.50;;;18.50;55.50;;;;;;4961855;28;20495;-65
2023/09/19 05:09:09;;;;;;;7.57;1.73;;;18.50;55.50;;;;;;4963268;28;20061;-64
2023/09/19 05:11:38;;;;;;;11.65;2.13;;;18.40;55.40;;;;;;4962884;28;20055;-64
2023/09/19 05:14:06;;;;;;;4.30;1.50;;;18.40;55.50;;;;;;4963719;28;20054;-65
2023/09/19 05:16:34;;;;;;;4.45;1.55;;;18.40;55.60;;;;;;4962308;28;20522;-65
2023/09/19 05:19:01;;;;;;;5.03;1.55;;;18.40;55.60;;;;;;4963260;28;20050;-65
2023/09/19 05:21:30;;;;;;;6.22;1.55;;;18.40;55.60;;;;;;4960961;28;20054;-64
2023/09/19 05:23:57;;;;;;;4.10;1.40;;;18.30;55.50;;;;;;4961936;28;20519;-64
2023/09/19 05:26:24;;;;;;;6.10;1.70;;;18.30;55.50;;;;;;4962477;28;20070;-64
2023/09/19 05:28:53;;;;;;;6.38;1.70;;;18.30;55.30;;;;;;4962507;28;20059;-64
2023/09/19 05:31:21;;;;;;;6.68;1.75;;;18.30;55.20;;;;;;4961836;28;20431;-61
2023/09/19 05:33:49;;;;;;;7.65;1.73;;;18.30;55.10;;;;;;4962697;28;20059;-60
2023/09/19 05:36:17;;;;;;;6.72;1.90;;;18.20;55.10;;;;;;4961886;28;20050;-63
2023/09/19 05:38:45;;;;;;;4.97;1.95;;;18.20;55.10;;;;;;4959199;28;20063;-63
2023/09/19 05:41:13;;;;;;;7.95;1.73;;;18.10;55.10;;;;;;4960471;28;20054;-63
2023/09/19 05:43:40;;;;;;;8.73;2.28;;;18.10;55.20;;;;;;4959652;28;20414;-63
2023/09/19 05:46:09;;;;;;;6.80;1.75;;;18.10;55.30;;;;;;4961016;28;20063;-63
2023/09/19 05:48:39;;;;;;;13.57;2.38;;;18.10;55.30;;;;;;4961498;28;20070;-64
2023/09/19 05:51:06;;;;;;;6.75;2.13;;;18.00;55.30;;;;;;4958963;28;20054;-64
2023/09/19 05:53:33;;;;;;;4.70;1.70;;;18.10;55.30;;;;;;4962060;28;20061;-66
2023/09/19 05:56:01;;;;;;;5.80;1.88;;;18.00;55.30;;;;;;4961801;28;20415;-62
2023/09/19 05:58:28;;;;;;;6.30;1.70;;;18.00;55.30;;;;;;4962313;28;20069;-61
2023/09/19 06:00:55;;;;;;;7.10;1.80;;;18.00;55.30;;;;;;4961756;28;20138;-61
2023/09/19 06:03:24;;;;;;;10.45;2.15;;;18.00;55.40;;;;;;4960648;28;20050;-60
2023/09/19 06:05:52;;;;;;;10.52;2.28;;;18.00;55.40;;;;;;4960668;28;20066;-60
2023/09/19 06:08:20;;;;;;;7.40;2.50;;;18.00;55.40;;;;;;4962438;28;20061;-61
2023/09/19 06:10:48;;;;;;;6.07;1.73;;;18.00;55.40;;;;;;4961386;28;20063;-60
2023/09/19 06:13:16;;;;;;;6.43;1.80;;;18.00;55.50;;;;;;4958802;28;20058;-63
2023/09/19 06:15:43;;;;;;;9.73;2.38;;;18.00;55.50;;;;;;4957614;28;20518;-61
2023/09/19 06:18:15;;;;;;;6.40;1.58;;;18.00;55.50;;;;;;4959826;28;20055;-61
2023/09/19 06:20:44;;;;;;;6.07;1.73;;;18.10;55.50;;;;;;4959430;28;20074;-60
2023/09/19 06:23:11;;;;;;;11.10;1.77;;;18.10;55.50;;;;;;4959349;28;20419;-59
2023/09/19 06:25:39;;;;;;;9.73;2.05;;;18.10;55.50;;;;;;4958530;28;20530;-61
2023/09/19 06:28:08;;;;;;;6.95;2.22;;;18.10;55.40;;;;;;4958955;28;20047;-61
2023/09/19 06:30:35;;;;;;;6.63;1.77;;;18.10;55.30;;;;;;4959251;28;20050;-62
2023/09/19 06:33:04;;;;;;;12.32;2.45;;;18.10;55.30;;;;;;4958932;28;20420;-61
2023/09/19 06:35:34;;;;;;;8.70;2.38;;;18.10;55.20;;;;;;4958535;28;20507;-61
2023/09/19 06:38:06;;;;;;;8.38;2.30;;;18.20;55.20;;;;;;4958851;28;20065;-61
2023/09/19 06:40:35;;;;;;;8.05;1.95;;;18.10;55.10;;;;;;4957669;28;20058;-60
2023/09/19 06:43:03;;;;;;;7.43;2.00;;;18.20;55.10;;;;;;4958245;28;20062;-60
2023/09/19 06:45:31;;;;;;;6.65;1.83;;;18.20;55.10;;;;;;4958427;28;20047;-57
2023/09/19 06:48:00;;;;;;;8.70;1.95;;;18.20;55.00;;;;;;4960352;28;20054;-61
2023/09/19 06:50:27;;;;;;;11.90;2.60;;;18.20;55.00;;;;;;4961069;28;20058;-58
2023/09/19 06:52:57;;;;;;;9.05;2.22;;;18.30;55.00;;;;;;4961254;28;20499;-61
2023/09/19 06:55:27;;;;;;;7.95;2.20;;;18.30;54.90;;;;;;4961709;28;20062;-63
2023/09/19 06:57:55;;;;;;;7.93;1.85;;;18.30;54.90;;;;;;4962313;28;20054;-61
2023/09/19 07:00:23;;;;;;;12.35;2.35;;;18.30;54.90;;;;;;4964933;28;20053;-60
2023/09/19 07:02:58;;;;;;;8.48;2.25;;;18.30;54.90;;;;;;4965894;28;20070;-58
2023/09/19 07:05:27;;;;;;;11.75;2.20;;;18.30;54.90;;;;;;4964666;28;20062;-61
2023/09/19 07:07:55;;;;;;;12.07;2.05;;;18.30;54.80;;;;;;4964045;28;20054;-60
2023/09/19 07:10:24;;;;;;;9.25;2.45;;;18.40;54.80;;;;;;4964611;28;20410;-62
2023/09/19 07:12:58;;;;;;;10.27;2.42;;;18.40;54.80;;;;;;4965322;28;20054;-58
2023/09/19 07:15:25;;;;;;;9.07;2.67;;;18.40;54.70;;;;;;4964369;28;20050;-63
2023/09/19 07:17:54;;;;;;;6.32;1.73;;;18.40;54.80;;;;;;4965520;28;20054;-62
2023/09/19 07:20:21;;;;;;;13.40;2.00;;;18.40;54.70;;;;;;4963951;28;20487;-63
2023/09/19 07:22:50;;;;;;;15.73;2.40;;;18.50;54.70;;;;;;4965116;28;20054;-61
2023/09/19 07:25:18;;;;;;;8.13;2.20;;;18.40;54.60;;;;;;4964705;28;20054;-62
2023/09/19 07:27:45;;;;;;;8.63;2.08;;;18.50;54.70;;;;;;4964817;28;20069;-63
2023/09/19 07:30:14;;;;;;;7.97;2.10;;;18.50;54.60;;;;;;4964640;28;20059;-62
2023/09/19 07:32:42;;;;;;;9.13;2.15;;;18.60;54.60;;;;;;4964547;28;20054;-63
2023/09/19 07:35:09;;;;;;;7.97;2.33;;;18.50;54.50;;;;;;4963629;28;20415;-59
2023/09/19 07:37:37;;;;;;;8.18;2.35;;;18.60;54.50;;;;;;4963518;28;20055;-62
2023/09/19 07:40:06;;;;;;;7.10;2.25;;;18.60;54.50;;;;;;4963870;28;20055;-61
2023/09/19 07:42:35;;;;;;;11.40;2.28;;;18.60;54.40;;;;;;4963817;28;20061;-58
2023/09/19 07:45:02;;;;;;;7.13;1.80;;;18.60;54.30;;;;;;4964399;28;20073;-62
2023/09/19 07:47:32;;;;;;;10.18;2.30;;;18.70;54.30;;;;;;4964280;28;20522;-63
2023/09/19 07:50:01;;;;;;;10.35;1.92;;;18.70;54.30;;;;;;4963727;28;20415;-51
2023/09/19 07:52:28;;;;;;;10.82;2.45;;;18.70;54.20;;;;;;4963429;28;20050;-57
2023/09/19 07:54:57;;;;;;;12.25;2.72;;;18.70;54.20;;;;;;4961744;28;20069;-55
2023/09/19 07:57:24;;;;;;;10.20;2.85;;;18.80;54.10;;;;;;4961101;28;20419;-52
2023/09/19 07:59:52;;;;;;;12.88;2.20;;;18.80;54.00;;;;;;4963803;28;20059;-56
2023/09/19 08:02:19;;;;;;;9.38;2.10;;;18.80;54.00;;;;;;4963985;28;20085;-56
2023/09/19 08:04:48;;;;;;;10.90;2.90;;;18.80;53.90;;;;;;4963553;28;20054;-56
2023/09/19 08:07:16;;;;;;;10.73;2.20;;;18.80;53.90;;;;;;4962640;28;21014;-51
2023/09/19 08:09:46;;;;;;;9.80;2.28;;;18.90;53.80;;;;;;4963610;28;20495;-52
2023/09/19 08:12:14;;;;;;;6.40;2.08;;;18.90;53.60;;;;;;4963036;28;20054;-52
2023/09/19 08:14:42;;;;;;;10.25;2.78;;;18.90;53.80;;;;;;4964392;28;20066;-52
2023/09/19 08:17:09;;;;;;;11.85;2.65;;;18.90;53.50;;;;;;4963459;28;20054;-49
2023/09/19 08:19:36;;;;;;;5.45;1.70;;;19.00;53.60;;;;;;4963884;28;20057;-50
2023/09/19 08:22:05;;;;;;;10.18;1.95;;;19.00;53.60;;;;;;4962334;28;20058;-50
2023/09/19 08:24:33;;;;;;;11.50;2.40;;;19.00;53.60;;;;;;4963491;28;20062;-53
2023/09/19 08:27:04;;;;;;;9.95;2.17;;;19.10;53.70;;;;;;4964371;28;20078;-53
2023/09/19 08:29:32;;;;;;;7.20;2.20;;;19.10;53.60;;;;;;4963226;28;20491;-50
2023/09/19 08:32:00;;;;;;;9.77;2.45;;;19.10;53.50;;;;;;4962524;28;20058;-52
2023/09/19 08:34:27;;;;;;;7.13;1.95;;;19.10;53.30;;;;;;4960965;28;20046;-54
2023/09/19 08:36:56;;;;;;;6.13;1.77;;;19.20;53.30;;;;;;4962491;28;20051;-53
2023/09/19 08:39:25;;;;;;;9.35;2.30;;;19.20;53.30;;;;;;4963672;28;20059;-50
2023/09/19 08:41:58;;;;;;;9.65;2.22;;;19.20;53.30;;;;;;4964149;28;20542;-54
2023/09/19 08:44:27;;;;;;;6.60;2.28;;;19.30;53.30;;;;;;4962399;28;20066;-53
2023/09/19 08:46:57;;;;;;;8.93;2.25;;;19.30;53.20;;;;;;4962028;28;20055;-56
2023/09/19 08:49:34;;;;;;;6.18;2.03;;;19.30;53.00;;;;;;4963188;28;20058;-50
2023/09/19 08:52:09;;;;;;;8.07;1.88;;;19.40;53.10;;;;;;4962119;28;20380;-50
2023/09/19 08:54:41;;;;;;;8.45;2.13;;;19.40;52.80;;;;;;4962232;28;20055;-51
2023/09/19 08:57:10;;;;;;;8.85;2.17;;;19.40;52.70;;;;;;4963333;28;20050;-51
2023/09/19 08:59:40;;;;;;;9.07;2.40;;;19.50;52.80;;;;;;4961923;28;20522;-60
2023/09/19 09:02:13;;;;;;;6.20;2.17;;;19.50;52.50;;;;;;4962297;28;20513;-51
2023/09/19 09:04:42;;;;;;;8.10;2.13;;;19.50;52.60;;;;;;4962697;28;20058;-49
2023/09/19 09:07:12;;;;;;;10.15;2.22;;;19.50;52.40;;;;;;4962394;28;20051;-51
2023/09/19 09:09:42;;;;;;;11.15;2.58;;;19.60;52.20;;;;;;4963153;28;20054;-49
2023/09/19 09:12:13;;;;;;;8.43;2.20;;;19.60;52.20;;;;;;4964091;28;20050;-50
2023/09/19 09:14:41;;;;;;;9.43;1.98;;;19.60;52.20;;;;;;4962602;28;20055;-50
2023/09/19 09:17:08;;;;;;;10.88;2.42;;;19.70;52.20;;;;;;4962056;28;20063;-49
2023/09/19 09:19:36;;;;;;;8.63;2.60;;;19.70;52.10;;;;;;4963334;28;20066;-55
2023/09/19 09:22:08;;;;;;;9.48;2.35;;;19.70;52.00;;;;;;4960805;28;20057;-52
2023/09/19 09:24:37;;;;;;;9.85;2.33;;;19.70;51.80;;;;;;4962460;28;20055;-50
2023/09/19 09:27:08;;;;;;;8.63;2.30;;;19.70;51.90;;;;;;4963135;28;20051;-47
2023/09/19 09:29:49;;;;;;;9.68;2.20;;;19.80;51.80;;;;;;4962104;28;20058;-48
2023/09/19 09:32:20;;;;;;;8.63;2.55;;;19.80;51.70;;;;;;4959128;28;20059;-51
2023/09/19 09:34:50;;;;;;;6.50;2.05;;;19.80;51.40;;;;;;4961543;28;20062;-53
2023/09/19 09:37:22;;;;;;;6.22;1.95;;;19.90;51.60;;;;;;4961023;28;20055;-49
2023/09/19 09:39:55;;;;;;;6.00;1.80;;;19.90;51.70;;;;;;4958571;28;20067;-51
2023/09/19 09:42:35;;;;;;;7.70;2.70;;;19.90;51.40;;;;;;4960264;28;20063;-52
2023/09/19 09:45:28;;;;;;;9.85;2.03;;;20.00;50.90;;;;;;4958830;28;20055;-53
2023/09/19 09:47:55;;;;;;;9.57;2.17;;;20.00;51.10;;;;;;4959843;28;20066;-51
2023/09/19 09:50:29;;;;;;;7.47;1.95;;;20.00;50.80;;;;;;4942218;28;20046;-51
2023/09/19 09:53:06;;;;;;;11.68;2.28;;;20.00;50.60;;;;;;4958979;28;20065;-49
2023/09/19 09:55:58;;;;;;;7.28;2.35;;;20.10;50.40;;;;;;4958371;28;20508;-51
2023/09/19 09:58:29;;;;;;;7.25;2.42;;;20.10;50.40;;;;;;4959280;28;20058;-50
2023/09/19 10:01:02;;;;;;;7.93;2.10;;;20.10;50.70;;;;;;4958679;28;20062;-52
2023/09/19 10:03:38;;;;;;;9.80;2.88;;;20.10;50.30;;;;;;4960113;28;20062;-53
2023/09/19 10:06:11;;;;;;;6.55;1.95;;;20.20;50.30;;;;;;4959547;28;20054;-48
2023/09/19 10:08:43;;;;;;;7.38;2.17;;;20.20;50.30;;;;;;4960185;28;20438;-49
2023/09/19 10:11:19;;;;;;;8.95;2.97;;;20.30;50.50;;;;;;4960334;28;20762;-50
2023/09/19 10:13:48;;;;;;;8.30;2.10;;;20.30;50.30;;;;;;4957610;28;20062;-50
2023/09/19 10:16:19;;;;;;;12.05;2.50;;;20.30;50.20;;;;;;4957353;28;20495;-47
2023/09/19 10:18:49;;;;;;;7.53;1.85;;;20.30;50.20;;;;;;4957925;28;20061;-49
2023/09/19 10:21:22;;;;;;;6.88;1.95;;;20.40;50.30;;;;;;4960165;28;20054;-49
2023/09/19 10:23:56;;;;;;;9.48;2.25;;;20.40;50.20;;;;;;4957750;28;20077;-48
2023/09/19 10:26:25;;;;;;;9.60;1.75;;;20.50;49.90;;;;;;4957057;28;20071;-49
2023/09/19 10:28:55;;;;;;;5.93;1.42;;;20.50;49.80;;;;;;4942626;28;20077;-51
2023/09/19 10:31:25;;;;;;;6.72;1.92;;;20.50;49.70;;;;;;4957282;28;20055;-47
2023/09/19 10:33:55;;;;;;;6.85;2.17;;;20.60;49.30;;;;;;4961171;28;20066;-48
2023/09/19 10:36:25;;;;;;;9.80;2.25;;;20.60;49.20;;;;;;4965315;28;20427;-53
2023/09/19 10:38:55;;;;;;;10.25;2.08;;;20.60;49.00;;;;;;4961027;28;20049;-47
2023/09/19 10:41:23;;;;;;;6.15;1.85;;;20.70;48.80;;;;;;4964013;28;20392;-57
2023/09/19 10:43:55;;;;;;;8.65;1.77;;;20.70;48.90;;;;;;4965198;28;20059;-44
2023/09/19 10:46:23;;;;;;;6.38;1.95;;;20.80;49.20;;;;;;4964181;28;20050;-52
2023/09/19 10:48:54;;;;;;;6.28;2.13;;;20.80;48.90;;;;;;4964883;28;20053;-51
2023/09/19 10:51:24;;;;;;;9.45;1.90;;;20.90;49.00;;;;;;4965732;28;20517;-52
2023/09/19 10:53:55;;;;;;;5.10;2.00;;;20.90;49.20;;;;;;4965524;28;20066;-51
2023/09/19 10:56:28;;;;;;;4.97;1.58;;;20.90;49.40;;;;;;4962412;28;20055;-55
2023/09/19 10:59:09;;;;;;;6.07;1.85;;;21.00;49.40;;;;;;4964430;28;20062;-49
2023/09/19 11:01:48;;;;;;;4.70;1.58;;;21.00;49.10;;;;;;4964521;28;20066;-46
2023/09/19 11:04:23;;;;;;;9.95;2.22;;;21.10;49.50;;;;;;4964901;28;20061;-50
2023/09/19 11:07:03;;;;;;;8.25;1.70;;;21.10;48.40;;;;;;4963976;28;20051;-53
2023/09/19 11:09:47;;;;;;;8.15;1.90;;;21.20;48.40;;;;;;4966158;28;20062;-49
2023/09/19 11:12:29;;;;;;;7.03;2.17;;;21.20;48.10;;;;;;4963815;28;20459;-48
2023/09/19 11:14:58;;;;;;;9.38;2.22;;;21.20;48.20;;;;;;4964754;28;20069;-50
2023/09/19 11:17:45;;;;;;;8.57;2.10;;;21.30;48.30;;;;;;4964655;28;20400;-48
2023/09/19 11:23:27;;;;;;;5.20;1.85;;;21.40;47.80;;;;;;4954940;28;20050;-57
2023/09/19 11:25:55;;;;;;;5.18;1.67;;;21.40;47.50;;;;;;4963234;28;20051;-53
2023/09/19 11:28:31;;;;;;;8.25;2.28;;;21.50;47.40;;;;;;4962857;28;20053;-56
2023/09/19 11:31:21;;;;;;;10.55;2.50;;;21.50;47.20;;;;;;4963944;28;20054;-58
2023/09/19 11:33:49;;;;;;;5.50;1.50;;;21.50;47.30;;;;;;4964415;28;20066;-57
2023/09/19 11:36:19;;;;;;;6.45;2.10;;;21.60;47.20;;;;;;4963704;28;20047;-56
2023/09/19 11:39:01;;;;;;;7.78;2.25;;;21.60;47.20;;;;;;4963673;28;20054;-58
2023/09/19 11:41:41;;;;;;;6.70;2.20;;;21.60;46.90;;;;;;4961625;28;20055;-57
2023/09/19 11:44:38;;;;;;;4.95;1.95;;;21.60;46.90;;;;;;4961732;28;20380;-58
2023/09/19 11:47:09;;;;;;;6.00;2.28;;;21.70;46.60;;;;;;4960719;28;20062;-56
2023/09/19 11:49:41;;;;;;;7.30;2.05;;;21.70;46.80;;;;;;4962352;28;20058;-54
2023/09/19 11:52:08;;;;;;;9.77;2.17;;;21.70;46.60;;;;;;4961025;28;20066;-59
2023/09/19 11:54:40;;;;;;;6.20;2.28;;;21.70;47.00;;;;;;4960492;28;20046;-56
2023/09/19 11:57:08;;;;;;;7.15;2.03;;;21.80;46.90;;;;;;4962796;28;20062;-57
2023/09/19 11:59:40;;;;;;;15.90;2.78;;;21.80;46.30;;;;;;4962335;28;20046;-56
2023/09/19 12:02:11;;;;;;;6.38;1.98;;;21.80;45.90;;;;;;4962471;28;20495;-53
2023/09/19 12:04:43;;;;;;;9.75;2.75;;;21.80;45.60;;;;;;4961623;28;20059;-56
2023/09/19 12:07:15;;;;;;;6.90;1.90;;;21.80;46.10;;;;;;4961012;28;20061;-59
2023/09/19 12:09:43;;;;;;;11.10;2.70;;;21.80;46.20;;;;;;4962062;28;20054;-52
2023/09/19 12:12:13;;;;;;;8.70;2.28;;;21.80;46.10;;;;;;4961407;28;20598;-56
2023/09/19 12:14:43;;;;;;;8.35;2.08;;;21.80;46.10;;;;;;4960605;28;20084;-56
2023/09/19 12:17:13;;;;;;;6.22;1.90;;;21.90;46.20;;;;;;4961551;28;20051;-57
2023/09/19 12:19:50;;;;;;;5.30;1.60;;;21.90;46.20;;;;;;4961271;28;20399;-58
2023/09/19 12:22:19;;;;;;;7.25;2.00;;;21.90;46.10;;;;;;4956907;28;20065;-58
2023/09/19 12:24:46;;;;;;;6.18;1.95;;;21.90;45.70;;;;;;4960504;28;20065;-57
2023/09/19 12:27:14;;;;;;;5.20;1.58;;;21.90;45.50;;;;;;4960338;28;20059;-58
2023/09/19 12:29:45;;;;;;;7.40;2.25;;;21.90;45.50;;;;;;4960775;28;20058;-49
2023/09/19 12:32:16;;;;;;;6.22;1.92;;;21.90;45.20;;;;;;4958035;28;20061;-49
2023/09/19 12:34:52;;;;;;;7.15;2.17;;;21.90;45.40;;;;;;4961241;28;22007;-48
2023/09/19 12:37:22;;;;;;;8.45;2.38;;;21.90;45.50;;;;;;4960390;28;20051;-56
2023/09/19 12:39:52;;;;;;;7.35;2.30;;;22.00;45.80;;;;;;4959568;28;20059;-48
2023/09/19 12:42:22;;;;;;;6.55;1.65;;;22.00;45.70;;;;;;4958531;28;20055;-48
2023/09/19 12:44:55;;;;;;;5.60;1.77;;;22.00;45.50;;;;;;4961074;28;20384;-53
2023/09/19 12:47:25;;;;;;;8.43;2.38;;;22.00;45.40;;;;;;4961003;28;20499;-48
2023/09/19 12:50:14;;;;;;;8.63;2.15;;;22.10;45.40;;;;;;4959713;28;20057;-49
2023/09/19 12:52:45;;;;;;;6.88;2.03;;;22.10;45.50;;;;;;4953607;28;20066;-51
2023/09/19 12:55:23;;;;;;;6.07;1.83;;;22.10;45.20;;;;;;4961549;28;20087;-46
2023/09/19 12:58:09;;;;;;;5.53;1.77;;;22.10;45.40;;;;;;4962126;28;20061;-48
2023/09/19 13:00:38;;;;;;;6.80;1.77;;;22.20;45.40;;;;;;4959601;28;20050;-51
2023/09/19 13:03:25;;;;;;;4.85;1.60;;;22.20;45.50;;;;;;4960639;28;20054;-56
2023/09/19 13:05:55;;;;;;;5.30;1.60;;;22.20;45.10;;;;;;4959983;28;20051;-50